Strona główna
METAR-TAF:

METAR-TAF

Lotnisko :

Sydney, Nowa Szkocja, Kanada

Szerokość geograficzna: 46-10N, Długość geograficzna: 060-03W, wysokość: 56 m

Aktualna obserwacja pogody

Raport powstał 36 minut temu, godzina 00:00 UTC
Wiatr 8 kt od zachodnio-północny zachód
Temperatura -10°C
Wilgotność 67%
Ciśnienie 1019 hPa
Widzialność: 24.1 km
Mało chmury na wysokości 3000 ft

METAR: CYQY 230000Z 30008KT 15SM FEW030 M10/M15 A3008 RMK CU1 SLP191

czas: 20:36 (00:36 UTC)

Prognoza

Raport powstał 58 minut temu, godzina 23:38 UTC
Prognoza ważna od 23 godzina 00 UTC do 23 godzina 12 UTC
Wiatr 10 kt od zachód
Widzialność: 10 km
Mało chmury na wysokości 3000 ft

TAF: CYQY 222338Z 2300/2312 27010KT P6SM FEW030 RMK NXT FCST BY 230600Z

Obserwacja i prognoza pogody dla ponad 4000 lotnisk (raport METAR i TAF).

Dostępne stacje oznaczono żółtymi i czerwonymi punktami na mapie.

Najedź kursorem aby zobaczyć nazwę stacji.

Kliknij aby zobaczyć obserwacje i prognozy pogody.

Aby zmienić mapę: kliknij na zielony przycisk z czarnym krzyżykiem, aby powiększyć; na zielony przycisk z myślnikiem, aby pomniejszyć; na zielone strzałki, aby przejść do map sąsiednich.


METAR-TAF: